createdAt,value
2022-10-25T00:00:58.798Z,8.25
2022-10-25T00:03:25.906Z,7.43
2022-10-25T00:05:53.024Z,7.28
2022-10-25T00:08:20.178Z,6.93
2022-10-25T00:10:47.411Z,7.57
2022-10-25T00:13:14.554Z,6.47
2022-10-25T00:15:41.680Z,6.20
2022-10-25T00:18:08.828Z,5.82
2022-10-25T00:20:37.260Z,5.75
2022-10-25T00:23:04.431Z,6.03
2022-10-25T00:25:31.576Z,6.30
2022-10-25T00:27:58.812Z,6.80
2022-10-25T00:30:26.006Z,5.85
2022-10-25T00:32:53.536Z,5.70
2022-10-25T00:35:20.890Z,6.60
2022-10-25T00:37:48.040Z,6.18
2022-10-25T00:40:15.188Z,5.85
2022-10-25T00:42:42.336Z,5.68
2022-10-25T00:45:26.568Z,6.05
2022-10-25T00:47:58.730Z,6.32
2022-10-25T00:50:30.685Z,5.70
2022-10-25T00:52:59.963Z,6.75
2022-10-25T00:55:28.267Z,5.47
2022-10-25T00:58:08.953Z,6.05
2022-10-25T01:00:36.723Z,6.40
2022-10-25T01:03:04.805Z,5.00
2022-10-25T01:05:31.935Z,5.95
2022-10-25T01:07:59.218Z,6.18
2022-10-25T01:10:26.833Z,5.63
2022-10-25T01:12:54.378Z,5.95
2022-10-25T01:15:25.782Z,5.13
2022-10-25T01:18:19.220Z,6.43
2022-10-25T01:21:02.117Z,5.93
2022-10-25T01:23:35.523Z,5.95
2022-10-25T01:26:02.630Z,6.20
2022-10-25T01:28:50.003Z,5.88
2022-10-25T01:31:35.547Z,5.93
2022-10-25T01:34:08.348Z,6.85
2022-10-25T01:36:38.491Z,6.03
2022-10-25T01:39:26.001Z,7.25
2022-10-25T01:41:53.029Z,6.80
2022-10-25T01:44:38.514Z,5.95
2022-10-25T01:47:09.432Z,7.18
2022-10-25T01:49:47.863Z,5.95
2022-10-25T01:52:15.751Z,6.40
2022-10-25T01:54:42.926Z,6.38
2022-10-25T01:57:24.464Z,6.50
2022-10-25T02:02:27.511Z,5.68
2022-10-25T02:05:04.360Z,6.97
2022-10-25T02:07:38.374Z,6.47
2022-10-25T02:12:51.744Z,6.65
2022-10-25T02:15:39.074Z,6.82
2022-10-25T02:18:08.674Z,7.18
2022-10-25T02:20:36.427Z,6.88
2022-10-25T02:23:05.132Z,8.00
2022-10-25T02:25:36.514Z,6.82
2022-10-25T02:30:32.818Z,8.27
2022-10-25T02:33:00.134Z,7.50
2022-10-25T02:35:27.199Z,7.55
2022-10-25T02:37:54.234Z,8.68
2022-10-25T02:40:21.500Z,7.22
2022-10-25T02:42:48.581Z,7.07
2022-10-25T02:45:15.656Z,8.18
2022-10-25T02:47:42.715Z,7.03
2022-10-25T02:50:09.926Z,9.50
2022-10-25T02:52:37.079Z,7.70
2022-10-25T02:55:04.232Z,8.50
2022-10-25T02:57:35.270Z,9.43
2022-10-25T03:00:02.801Z,7.50
2022-10-25T03:02:29.917Z,9.27
2022-10-25T03:04:56.973Z,8.88
2022-10-25T03:07:24.051Z,7.82
2022-10-25T03:09:51.114Z,9.32
2022-10-25T03:12:18.168Z,7.82
2022-10-25T03:14:45.223Z,9.00
2022-10-25T03:17:12.397Z,9.95
2022-10-25T03:19:39.515Z,8.98
2022-10-25T03:22:06.624Z,9.55
2022-10-25T03:24:33.672Z,9.27
2022-10-25T03:27:01.573Z,10.27
2022-10-25T03:29:28.630Z,9.98
2022-10-25T03:31:55.727Z,9.80
2022-10-25T03:34:22.840Z,11.65
2022-10-25T03:36:49.885Z,11.07
2022-10-25T03:39:16.932Z,12.70
2022-10-25T03:41:44.007Z,12.70
2022-10-25T03:44:11.246Z,13.98
2022-10-25T03:46:38.308Z,10.65
2022-10-25T03:49:05.382Z,11.57
2022-10-25T03:51:32.435Z,12.43
2022-10-25T03:53:59.507Z,11.38
2022-10-25T03:56:26.583Z,11.43
2022-10-25T03:58:53.682Z,11.27
2022-10-25T04:01:20.876Z,13.30
2022-10-25T04:03:48.066Z,12.55
2022-10-25T04:06:15.160Z,12.30
2022-10-25T04:08:42.230Z,13.57
2022-10-25T04:11:09.347Z,12.68
2022-10-25T04:13:36.403Z,13.80
2022-10-25T04:16:09.995Z,12.63
2022-10-25T04:18:37.049Z,13.75
2022-10-25T04:21:04.191Z,13.02
2022-10-25T04:23:31.399Z,14.15
2022-10-25T04:25:58.523Z,13.30
2022-10-25T04:28:25.683Z,14.52
2022-10-25T04:30:53.013Z,17.42
2022-10-25T04:33:20.106Z,15.00
2022-10-25T04:35:53.567Z,15.48
2022-10-25T04:38:20.636Z,14.00
2022-10-25T04:40:53.631Z,16.27
2022-10-25T04:43:20.674Z,17.10
2022-10-25T04:45:47.720Z,17.55
2022-10-25T04:48:15.079Z,17.17
2022-10-25T04:50:42.341Z,16.67
2022-10-25T04:53:09.420Z,18.13
2022-10-25T04:55:36.538Z,16.02
2022-10-25T04:58:03.671Z,19.38
2022-10-25T05:00:30.732Z,17.10
2022-10-25T05:02:57.824Z,18.08
2022-10-25T05:05:25.593Z,20.67
2022-10-25T05:07:52.646Z,20.92
2022-10-25T05:10:19.696Z,21.67
2022-10-25T05:12:47.166Z,21.98
2022-10-25T05:15:14.413Z,20.55
2022-10-25T05:17:41.514Z,22.90
2022-10-25T05:20:08.799Z,22.63
2022-10-25T05:22:35.837Z,31.20
2022-10-25T05:25:02.930Z,23.23
2022-10-25T05:27:30.012Z,21.83
2022-10-25T05:29:57.087Z,24.20
2022-10-25T05:32:24.210Z,23.25
2022-10-25T05:34:51.329Z,31.48
2022-10-25T05:37:18.399Z,24.38
2022-10-25T05:39:45.528Z,33.00
2022-10-25T05:42:12.590Z,28.27
2022-10-25T05:44:39.668Z,31.27
2022-10-25T05:47:06.800Z,24.95
2022-10-25T05:49:39.486Z,25.85
2022-10-25T05:52:07.152Z,28.92
2022-10-25T05:54:34.402Z,24.05
2022-10-25T05:57:01.581Z,26.20
2022-10-25T05:59:28.655Z,22.70
2022-10-25T06:01:55.983Z,24.60
2022-10-25T06:04:23.331Z,26.13
2022-10-25T06:06:52.136Z,24.13
2022-10-25T06:09:19.245Z,23.98
2022-10-25T06:11:46.547Z,22.60
2022-10-25T06:14:13.817Z,23.73
2022-10-25T06:16:40.890Z,21.63
2022-10-25T06:19:08.195Z,22.42
2022-10-25T06:21:35.256Z,23.70
2022-10-25T06:24:02.371Z,22.67
2022-10-25T06:26:30.305Z,23.75
2022-10-25T06:28:58.500Z,23.40
2022-10-25T06:31:25.834Z,23.48
2022-10-25T06:33:53.166Z,20.65
2022-10-25T06:36:21.384Z,22.55
2022-10-25T06:38:49.343Z,22.17
2022-10-25T06:41:21.039Z,22.98
2022-10-25T06:43:48.433Z,22.98
2022-10-25T06:46:20.339Z,23.05
2022-10-25T06:48:47.378Z,20.75
2022-10-25T06:51:14.467Z,20.52
2022-10-25T06:53:41.638Z,22.95
2022-10-25T06:56:14.186Z,21.98
2022-10-25T06:58:41.863Z,19.60
2022-10-25T07:01:11.107Z,20.60
2022-10-25T07:03:38.404Z,21.75
2022-10-25T07:06:12.894Z,22.25
2022-10-25T07:08:41.038Z,22.55
2022-10-25T07:11:08.589Z,23.92
2022-10-25T07:13:35.756Z,21.83
2022-10-25T07:16:03.563Z,20.75
2022-10-25T07:18:31.439Z,22.50
2022-10-25T07:21:06.253Z,19.30
2022-10-25T07:23:33.742Z,21.67
2022-10-25T07:26:01.152Z,20.42
2022-10-25T07:28:28.253Z,19.50
2022-10-25T07:30:55.472Z,20.20
2022-10-25T07:33:22.543Z,18.95
2022-10-25T07:36:06.457Z,19.42
2022-10-25T07:38:37.338Z,18.52
2022-10-25T07:41:04.446Z,20.85
2022-10-25T07:43:31.576Z,17.77
2022-10-25T07:45:58.624Z,18.10
2022-10-25T07:48:25.726Z,18.70
2022-10-25T07:50:52.789Z,19.55
2022-10-25T07:53:20.077Z,19.08
2022-10-25T07:55:51.659Z,19.05
2022-10-25T07:58:18.747Z,17.52
2022-10-25T08:00:45.835Z,17.80
2022-10-25T08:03:13.753Z,15.65
2022-10-25T08:05:40.965Z,14.77
2022-10-25T08:08:08.263Z,14.80
2022-10-25T08:10:35.338Z,13.98
2022-10-25T08:13:02.402Z,13.85
2022-10-25T08:15:29.530Z,12.82
2022-10-25T08:18:00.034Z,15.80
2022-10-25T08:20:43.306Z,14.15
2022-10-25T08:23:14.986Z,14.55
2022-10-25T08:25:42.327Z,14.18
2022-10-25T08:28:09.394Z,13.57
2022-10-25T08:30:36.595Z,12.32
2022-10-25T08:33:03.667Z,11.65
2022-10-25T08:35:30.827Z,11.13
2022-10-25T08:38:00.674Z,12.38
2022-10-25T08:40:46.504Z,11.60
2022-10-25T08:43:25.346Z,12.38
2022-10-25T08:45:57.105Z,12.68
2022-10-25T08:48:28.227Z,13.82
2022-10-25T08:50:57.829Z,12.18
2022-10-25T08:53:33.955Z,13.15
2022-10-25T08:56:17.866Z,12.57
2022-10-25T08:58:48.631Z,11.10
2022-10-25T09:01:19.658Z,11.85
2022-10-25T09:03:46.796Z,11.95
2022-10-25T09:06:21.571Z,9.40
2022-10-25T09:08:58.251Z,9.43
2022-10-25T09:11:37.722Z,9.50
2022-10-25T09:14:08.560Z,8.20
2022-10-25T09:16:54.816Z,9.77
2022-10-25T09:19:21.890Z,8.57
2022-10-25T09:21:52.003Z,7.85
2022-10-25T09:24:22.179Z,7.28
2022-10-25T09:26:54.892Z,7.60
2022-10-25T09:29:24.394Z,7.47
2022-10-25T09:31:57.665Z,7.53
2022-10-25T09:34:26.027Z,6.95
2022-10-25T09:36:55.849Z,7.28
2022-10-25T09:39:25.990Z,6.30
2022-10-25T09:41:56.758Z,7.32
2022-10-25T09:44:33.146Z,7.28
2022-10-25T09:47:18.472Z,7.20
2022-10-25T09:50:03.253Z,7.63
2022-10-25T09:53:09.099Z,6.82
2022-10-25T09:55:41.358Z,7.75
2022-10-25T09:58:12.420Z,7.85
2022-10-25T10:00:40.929Z,7.35
2022-10-25T10:03:10.216Z,7.38
2022-10-25T10:05:37.333Z,6.45
2022-10-25T10:08:04.431Z,7.07
2022-10-25T10:10:33.786Z,7.15
2022-10-25T10:13:19.326Z,6.47
2022-10-25T10:15:54.834Z,6.35
2022-10-25T10:18:31.971Z,7.00
2022-10-25T10:21:11.030Z,8.25
2022-10-25T10:23:43.707Z,7.10
2022-10-25T10:26:12.518Z,7.43
2022-10-25T10:28:44.422Z,6.90
2022-10-25T10:31:12.274Z,5.72
2022-10-25T10:33:39.504Z,5.45
2022-10-25T10:36:29.089Z,6.68
2022-10-25T10:39:13.702Z,6.30
2022-10-25T10:41:53.424Z,7.05
2022-10-25T10:44:20.475Z,6.10
2022-10-25T10:46:49.156Z,5.55
2022-10-25T10:49:16.742Z,6.10
2022-10-25T10:51:45.546Z,5.65
2022-10-25T10:54:22.274Z,6.45
2022-10-25T10:57:03.230Z,5.85
2022-10-25T10:59:50.519Z,4.72
2022-10-25T11:02:17.665Z,5.07
2022-10-25T11:04:49.053Z,5.60
2022-10-25T11:09:43.182Z,5.80
2022-10-25T11:12:18.748Z,5.13
2022-10-25T11:14:45.839Z,5.25
2022-10-25T11:17:17.813Z,5.15
2022-10-25T11:19:57.408Z,6.22
2022-10-25T11:22:33.242Z,5.70
2022-10-25T11:25:20.768Z,5.00
2022-10-25T11:28:06.671Z,5.68
2022-10-25T11:31:00.122Z,6.38
2022-10-25T11:33:36.379Z,7.15
2022-10-25T11:36:11.862Z,5.90
2022-10-25T11:38:53.252Z,5.82
2022-10-25T11:44:05.829Z,5.90
2022-10-25T11:46:38.886Z,5.18
2022-10-25T11:49:18.430Z,5.57
2022-10-25T11:52:04.688Z,5.63
2022-10-25T11:54:40.616Z,4.68
2022-10-25T11:57:07.696Z,5.38
2022-10-25T11:59:42.524Z,5.85
2022-10-25T12:02:17.894Z,5.70
2022-10-25T12:04:47.762Z,5.10
2022-10-25T12:07:18.675Z,5.05
2022-10-25T12:10:04.780Z,5.05
2022-10-25T12:12:41.087Z,4.57
2022-10-25T12:15:12.734Z,5.15
2022-10-25T12:17:40.108Z,5.28
2022-10-25T12:20:11.970Z,5.47
2022-10-25T12:22:42.812Z,5.85
2022-10-25T12:25:15.762Z,6.07
2022-10-25T12:27:45.072Z,4.57
2022-10-25T12:30:16.690Z,5.65
2022-10-25T12:32:53.241Z,5.05
2022-10-25T12:35:26.174Z,5.00
2022-10-25T12:37:58.107Z,4.35
2022-10-25T12:40:26.379Z,4.18
2022-10-25T12:42:55.679Z,4.30
2022-10-25T12:45:41.109Z,5.10
2022-10-25T12:48:26.843Z,4.60
2022-10-25T12:50:57.002Z,4.97
2022-10-25T12:53:42.550Z,3.70
2022-10-25T12:56:09.586Z,4.00
2022-10-25T12:58:54.727Z,3.78
2022-10-25T13:01:30.757Z,4.00
2022-10-25T13:04:07.275Z,4.22
2022-10-25T13:06:47.661Z,4.53
2022-10-25T13:09:16.267Z,4.70
2022-10-25T13:11:47.496Z,3.85
2022-10-25T13:16:42.101Z,3.60
2022-10-25T13:19:25.790Z,3.50
2022-10-25T13:22:11.238Z,8.35
2022-10-25T13:24:42.674Z,3.05
2022-10-25T13:27:15.687Z,6.28
2022-10-25T13:29:48.682Z,4.75
2022-10-25T13:32:20.148Z,4.57
2022-10-25T13:34:47.646Z,5.05
2022-10-25T13:37:41.319Z,4.53
2022-10-25T13:40:20.647Z,5.50
2022-10-25T13:42:49.503Z,5.07
2022-10-25T13:45:30.008Z,4.93
2022-10-25T13:48:08.271Z,4.15
2022-10-25T13:50:43.096Z,3.85
2022-10-25T13:53:16.354Z,3.75
2022-10-25T13:55:47.826Z,7.00
2022-10-25T13:58:32.010Z,3.45
2022-10-25T14:01:21.288Z,3.97
2022-10-25T14:03:51.407Z,3.53
2022-10-25T14:06:23.873Z,4.35
2022-10-25T14:08:54.124Z,3.75
2022-10-25T14:11:24.150Z,3.28
2022-10-25T14:13:56.190Z,3.83
2022-10-25T14:16:26.515Z,4.38
2022-10-25T14:18:54.504Z,4.25
2022-10-25T14:21:21.623Z,4.88
2022-10-25T14:23:50.040Z,5.15
2022-10-25T14:26:18.142Z,4.68
2022-10-25T14:28:45.225Z,7.78
2022-10-25T14:31:13.711Z,5.63
2022-10-25T14:33:45.947Z,5.22
2022-10-25T14:36:24.926Z,4.00
2022-10-25T14:38:51.981Z,4.65
2022-10-25T14:41:24.043Z,4.65
2022-10-25T14:43:51.151Z,4.72
2022-10-25T14:46:19.820Z,5.05
2022-10-25T14:48:47.808Z,4.50
2022-10-25T14:51:14.913Z,5.22
2022-10-25T14:53:50.661Z,6.65
2022-10-25T14:56:22.936Z,6.07
2022-10-25T14:58:50.694Z,7.40
2022-10-25T15:01:20.337Z,7.97
2022-10-25T15:03:48.636Z,7.68
2022-10-25T15:06:16.700Z,8.60
2022-10-25T15:08:51.800Z,8.40
2022-10-25T15:11:21.035Z,6.57
2022-10-25T15:13:50.210Z,6.43
2022-10-25T15:16:26.584Z,6.45
2022-10-25T15:19:07.366Z,6.85
2022-10-25T15:21:43.393Z,7.05
2022-10-25T15:24:14.794Z,6.68
2022-10-25T15:29:08.959Z,7.15
2022-10-25T15:31:36.195Z,7.97
2022-10-25T15:34:04.712Z,8.70
2022-10-25T15:36:35.150Z,9.18
2022-10-25T15:39:11.419Z,9.10
2022-10-25T15:41:39.926Z,10.25
2022-10-25T15:44:07.209Z,9.05
2022-10-25T15:46:35.200Z,8.32
2022-10-25T15:49:04.336Z,9.88
2022-10-25T15:51:33.742Z,9.52
2022-10-25T15:54:00.851Z,10.10
2022-10-25T15:56:28.038Z,8.55
2022-10-25T15:58:55.264Z,11.05
2022-10-25T16:01:22.542Z,9.48
2022-10-25T16:03:49.758Z,8.70
2022-10-25T16:06:16.916Z,13.73
2022-10-25T16:08:44.048Z,10.32
2022-10-25T16:11:14.390Z,10.23
2022-10-25T16:13:41.993Z,14.93
2022-10-25T16:16:34.946Z,16.90
2022-10-25T16:19:01.160Z,14.82
2022-10-25T16:21:31.154Z,14.05
2022-10-25T16:23:58.290Z,14.05
2022-10-25T16:26:30.150Z,16.20
2022-10-25T16:28:57.289Z,17.52
2022-10-25T16:31:24.589Z,18.05
2022-10-25T16:33:51.789Z,19.27
2022-10-25T16:36:20.529Z,21.27
2022-10-25T16:38:48.243Z,20.40
2022-10-25T16:41:21.966Z,27.08
2022-10-25T16:43:49.339Z,30.63
2022-10-25T16:46:16.445Z,63.67
2022-10-25T16:48:43.512Z,35.30
2022-10-25T16:51:14.541Z,45.75
2022-10-25T16:53:42.174Z,49.70
2022-10-25T16:56:11.311Z,56.80
2022-10-25T16:58:39.153Z,88.40
2022-10-25T17:01:17.195Z,55.40
2022-10-25T17:03:44.553Z,65.72
2022-10-25T17:06:28.838Z,57.03
2022-10-25T17:08:58.741Z,69.75
2022-10-25T17:11:25.811Z,56.17
2022-10-25T17:13:52.888Z,73.25
2022-10-25T17:16:20.049Z,87.28
2022-10-25T17:18:47.142Z,81.82
2022-10-25T17:21:15.176Z,60.10
2022-10-25T17:23:42.356Z,47.67
2022-10-25T17:26:11.515Z,55.50
2022-10-25T17:28:43.120Z,47.33
2022-10-25T17:31:12.346Z,38.95
2022-10-25T17:33:40.325Z,44.15
2022-10-25T17:36:12.055Z,43.55
2022-10-25T17:38:39.344Z,70.43
2022-10-25T17:41:06.569Z,46.40
2022-10-25T17:43:37.480Z,46.65
2022-10-25T17:46:05.654Z,40.30
2022-10-25T17:48:33.188Z,64.80
2022-10-25T17:51:04.241Z,67.63
2022-10-25T17:53:31.477Z,30.30
2022-10-25T17:55:58.782Z,23.35
2022-10-25T17:58:25.943Z,20.83
2022-10-25T18:00:54.474Z,20.33
2022-10-25T18:03:21.789Z,20.10
2022-10-25T18:05:48.991Z,20.35
2022-10-25T18:08:16.310Z,22.65
2022-10-25T18:10:43.434Z,23.38
2022-10-25T18:13:10.512Z,24.45
2022-10-25T18:15:38.277Z,21.67
2022-10-25T18:18:05.496Z,16.77
2022-10-25T18:20:32.609Z,16.50
2022-10-25T18:22:59.692Z,13.35
2022-10-25T18:25:26.771Z,13.73
2022-10-25T18:27:53.920Z,12.07
2022-10-25T18:30:21.038Z,12.75
2022-10-25T18:32:48.177Z,12.15
2022-10-25T18:35:15.421Z,13.05
2022-10-25T18:37:42.517Z,6.78
2022-10-25T18:40:10.219Z,7.05
2022-10-25T18:42:38.167Z,5.90
2022-10-25T18:45:05.776Z,6.05
2022-10-25T18:47:32.926Z,6.25
2022-10-25T18:50:00.091Z,6.25
2022-10-25T18:52:27.467Z,6.20
2022-10-25T18:54:54.610Z,8.45
2022-10-25T18:57:21.811Z,7.75
2022-10-25T18:59:49.092Z,8.63
2022-10-25T19:02:16.399Z,7.15
2022-10-25T19:04:43.634Z,7.97
2022-10-25T19:07:10.814Z,7.88
2022-10-25T19:09:37.987Z,7.57
2022-10-25T19:12:05.568Z,9.13
2022-10-25T19:14:32.880Z,8.23
2022-10-25T19:17:00.099Z,7.40
2022-10-25T19:19:27.371Z,7.85
2022-10-25T19:21:54.632Z,7.32
2022-10-25T19:24:22.862Z,7.70
2022-10-25T19:26:50.499Z,7.82
2022-10-25T19:29:17.874Z,47.40
2022-10-25T19:31:45.093Z,30.38
2022-10-25T19:34:12.316Z,20.20
2022-10-25T19:36:39.470Z,11.85
2022-10-25T19:39:06.684Z,8.55
2022-10-25T19:41:33.989Z,7.93
2022-10-25T19:44:01.233Z,7.90
2022-10-25T19:46:28.432Z,8.10
2022-10-25T19:48:56.373Z,8.10
2022-10-25T19:51:23.699Z,8.27
2022-10-25T19:53:50.899Z,6.13
2022-10-25T19:56:18.011Z,6.05
2022-10-25T19:58:45.505Z,6.07
2022-10-25T20:01:14.479Z,5.65
2022-10-25T20:03:42.719Z,6.35
2022-10-25T20:06:11.493Z,5.22
2022-10-25T20:08:40.045Z,11.63
2022-10-25T20:11:07.801Z,12.55
2022-10-25T20:13:35.208Z,12.77
2022-10-25T20:16:03.068Z,8.43
2022-10-25T20:18:31.868Z,7.30
2022-10-25T20:21:00.597Z,12.18
2022-10-25T20:23:27.877Z,10.32
2022-10-25T20:25:55.055Z,7.35
2022-10-25T20:28:22.254Z,8.98
2022-10-25T20:30:49.810Z,8.15
2022-10-25T20:33:16.955Z,9.95
2022-10-25T20:35:45.791Z,8.23
2022-10-25T20:38:13.227Z,9.95
2022-10-25T20:40:40.727Z,10.00
2022-10-25T20:43:07.957Z,10.15
2022-10-25T20:45:35.180Z,7.78
2022-10-25T20:48:02.425Z,6.85
2022-10-25T20:50:30.198Z,6.25
2022-10-25T20:53:12.607Z,6.40
2022-10-25T20:55:39.779Z,7.88
2022-10-25T20:58:07.041Z,7.70
2022-10-25T21:00:34.450Z,10.38
2022-10-25T21:03:01.642Z,7.78
2022-10-25T21:05:28.833Z,7.18
2022-10-25T21:07:55.945Z,8.13
2022-10-25T21:10:23.089Z,7.72
2022-10-25T21:12:50.215Z,9.55
2022-10-25T21:15:17.326Z,7.38
2022-10-25T21:17:49.461Z,7.97
2022-10-25T21:20:16.870Z,8.00
2022-10-25T21:22:44.037Z,9.30
2022-10-25T21:25:11.170Z,9.02
2022-10-25T21:27:38.355Z,7.85
2022-10-25T21:30:05.707Z,8.63
2022-10-25T21:32:32.869Z,8.75
2022-10-25T21:35:00.045Z,10.57
2022-10-25T21:37:27.297Z,9.82
2022-10-25T21:39:54.397Z,11.32
2022-10-25T21:42:21.546Z,10.55
2022-10-25T21:44:48.699Z,10.77
2022-10-25T21:47:15.963Z,10.60
2022-10-25T21:49:43.096Z,10.85
2022-10-25T21:52:10.217Z,9.82
2022-10-25T21:54:37.406Z,11.82
2022-10-25T21:57:04.666Z,10.05
2022-10-25T21:59:31.790Z,12.05
2022-10-25T22:01:59.344Z,12.57
2022-10-25T22:04:27.883Z,11.18
2022-10-25T22:06:55.082Z,12.30
2022-10-25T22:09:22.233Z,11.73
2022-10-25T22:11:52.608Z,12.82
2022-10-25T22:14:19.855Z,13.15
2022-10-25T22:16:47.002Z,11.90
2022-10-25T22:19:15.911Z,12.73
2022-10-25T22:21:43.658Z,13.07
2022-10-25T22:24:11.552Z,12.45
2022-10-25T22:26:39.850Z,13.40
2022-10-25T22:29:07.100Z,15.18
2022-10-25T22:31:34.782Z,14.15
2022-10-25T22:34:02.996Z,13.90
2022-10-25T22:36:31.300Z,14.38
2022-10-25T22:38:58.741Z,14.07
2022-10-25T22:41:26.903Z,13.70
2022-10-25T22:43:54.401Z,14.32
2022-10-25T22:46:25.193Z,14.98
2022-10-25T22:48:53.439Z,15.93
2022-10-25T22:51:20.832Z,15.65
2022-10-25T22:53:48.161Z,14.52
2022-10-25T22:56:25.881Z,15.63
2022-10-25T22:58:57.124Z,15.20
2022-10-25T23:01:25.953Z,15.43
2022-10-25T23:03:57.150Z,16.80
2022-10-25T23:06:25.822Z,15.20
2022-10-25T23:08:53.751Z,18.02
2022-10-25T23:11:21.963Z,23.08
2022-10-25T23:13:49.490Z,16.10
2022-10-25T23:16:17.000Z,18.77
2022-10-25T23:18:44.559Z,16.42
2022-10-25T23:21:18.670Z,19.40
2022-10-25T23:23:46.774Z,16.83
2022-10-25T23:26:19.290Z,19.55
2022-10-25T23:28:46.758Z,19.80
2022-10-25T23:31:14.396Z,20.02
2022-10-25T23:33:41.965Z,21.55
2022-10-25T23:36:15.447Z,26.75
2022-10-25T23:38:43.147Z,26.10
2022-10-25T23:41:10.633Z,26.50
2022-10-25T23:43:38.059Z,29.42
2022-10-25T23:46:05.493Z,23.10
2022-10-25T23:48:32.640Z,25.33
2022-10-25T23:51:04.433Z,26.23
2022-10-25T23:53:31.773Z,23.40
2022-10-25T23:55:58.951Z,24.48
2022-10-25T23:58:26.278Z,32.22
